Time;durP1;ratioP1;P1;durP2;ratioP2;P2;SDS_P1;SDS_P2;PMS_P1;PMS_P2;Temp;Humidity;BMP_temperature;BMP_pressure;BME280_temperature;BME280_humidity;BME280_pressure;Samples;Min_cycle;Max_cycle;Signal;HPM_P1;HPM_P2
2024/03/12 00:00:18;;;;;;;1.43;1.10;;;;;;;;;;6128399;23;20601;-80
2024/03/12 00:02:46;;;;;;;1.30;1.20;;;;;;;;;;6128429;23;20168;-81
2024/03/12 00:05:14;;;;;;;1.20;1.10;;;;;;;;;;6128353;23;20168;-81
2024/03/12 00:07:42;;;;;;;1.50;1.20;;;;;;;;;;6127905;23;20182;-80
2024/03/12 00:10:15;;;;;;;1.27;1.03;;;;;;;;;;6131818;23;20194;-81
2024/03/12 00:12:43;;;;;;;1.00;0.90;;;;;;;;;;6129139;23;20169;-80
2024/03/12 00:15:11;;;;;;;1.20;1.00;;;;;;;;;;6128682;23;20215;-81
2024/03/12 00:17:39;;;;;;;0.80;0.80;;;;;;;;;;6135082;23;20244;-82
2024/03/12 00:20:16;;;;;;;0.80;0.80;;;;;;;;;;6140795;23;20229;-81
2024/03/12 00:22:47;;;;;;;1.13;0.90;;;;;;;;;;6115589;23;20196;-82
2024/03/12 00:25:16;;;;;;;1.00;0.70;;;;;;;;;;6141011;23;20172;-82
2024/03/12 00:27:44;;;;;;;0.70;0.70;;;;;;;;;;6114154;23;20168;-81
2024/03/12 00:30:14;;;;;;;0.50;0.50;;;;;;;;;;6138144;23;20191;-81
2024/03/12 00:32:43;;;;;;;0.67;0.67;;;;;;;;;;6136946;23;20163;-81
2024/03/12 00:35:11;;;;;;;0.90;0.73;;;;;;;;;;6130635;23;20277;-81
2024/03/12 00:37:38;;;;;;;0.67;0.60;;;;;;;;;;6128210;23;20174;-81
2024/03/12 00:40:11;;;;;;;0.70;0.70;;;;;;;;;;6128419;23;20175;-80
2024/03/12 00:42:39;;;;;;;0.83;0.83;;;;;;;;;;6126629;23;20617;-81
2024/03/12 00:45:11;;;;;;;0.80;0.80;;;;;;;;;;6127323;23;20164;-81
2024/03/12 00:47:41;;;;;;;0.77;0.77;;;;;;;;;;6127769;23;20167;-81
2024/03/12 00:50:11;;;;;;;2.17;0.93;;;;;;;;;;6127888;23;20621;-81
2024/03/12 00:52:40;;;;;;;1.07;0.97;;;;;;;;;;6127822;23;20168;-80
2024/03/12 00:55:09;;;;;;;1.10;1.00;;;;;;;;;;6128253;23;20597;-82
2024/03/12 00:57:38;;;;;;;0.93;0.90;;;;;;;;;;6129717;23;20167;-81
2024/03/12 01:00:25;;;;;;;0.80;0.80;;;;;;;;;;6128042;23;20180;-81
2024/03/12 01:02:54;;;;;;;0.97;0.90;;;;;;;;;;6127564;23;20203;-80
2024/03/12 01:05:24;;;;;;;1.50;1.10;;;;;;;;;;6127622;23;20159;-81
2024/03/12 01:07:53;;;;;;;1.10;1.00;;;;;;;;;;6128248;23;20226;-81
2024/03/12 01:10:21;;;;;;;1.20;1.10;;;;;;;;;;6128082;23;20637;-81
2024/03/12 01:12:49;;;;;;;1.20;1.10;;;;;;;;;;6127683;23;20164;-80
2024/03/12 01:15:20;;;;;;;0.93;0.93;;;;;;;;;;6103139;23;20168;-81
2024/03/12 01:17:49;;;;;;;1.17;1.07;;;;;;;;;;6105352;23;20147;-81
2024/03/12 01:20:20;;;;;;;1.20;1.10;;;;;;;;;;6129976;23;20218;-81
2024/03/12 01:22:50;;;;;;;1.50;1.40;;;;;;;;;;6129551;23;20671;-80
2024/03/12 01:25:17;;;;;;;1.67;1.10;;;;;;;;;;6126545;23;20156;-79
2024/03/12 01:27:45;;;;;;;1.13;1.03;;;;;;;;;;6126567;23;20551;-80
2024/03/12 01:30:16;;;;;;;1.13;1.07;;;;;;;;;;6125044;23;20191;-80
2024/03/12 01:32:47;;;;;;;1.43;1.33;;;;;;;;;;6123511;23;20231;-80
2024/03/12 01:35:15;;;;;;;1.53;1.30;;;;;;;;;;6124104;23;20159;-80
2024/03/12 01:37:49;;;;;;;1.30;1.20;;;;;;;;;;6124152;23;20172;-80
2024/03/12 01:40:29;;;;;;;1.40;1.30;;;;;;;;;;6124195;23;20156;-81
2024/03/12 01:43:01;;;;;;;1.93;1.40;;;;;;;;;;6124294;23;20207;-80
2024/03/12 01:45:30;;;;;;;3.00;1.50;;;;;;;;;;6123958;23;20175;-81
2024/03/12 01:47:58;;;;;;;1.53;1.43;;;;;;;;;;6124139;23;20167;-80
2024/03/12 01:50:27;;;;;;;1.63;1.40;;;;;;;;;;6124132;23;20188;-80
2024/03/12 01:52:59;;;;;;;1.50;1.40;;;;;;;;;;6124919;23;20645;-81
2024/03/12 01:55:26;;;;;;;1.50;1.40;;;;;;;;;;6126911;23;20171;-81
2024/03/12 01:57:54;;;;;;;1.50;1.40;;;;;;;;;;6128304;23;20259;-81
2024/03/12 02:00:22;;;;;;;1.70;1.60;;;;;;;;;;6128289;23;20241;-81
2024/03/12 02:02:52;;;;;;;1.70;1.60;;;;;;;;;;6129037;23;20164;-81
2024/03/12 02:05:21;;;;;;;1.83;1.60;;;;;;;;;;6130102;23;20199;-81
2024/03/12 02:07:51;;;;;;;1.93;1.63;;;;;;;;;;6130173;23;20164;-81
2024/03/12 02:10:20;;;;;;;1.60;1.50;;;;;;;;;;6130774;23;20175;-81
2024/03/12 02:12:48;;;;;;;1.90;1.70;;;;;;;;;;6130182;23;20230;-81
2024/03/12 02:15:23;;;;;;;1.60;1.50;;;;;;;;;;6129904;23;20636;-81
2024/03/12 02:17:52;;;;;;;2.33;1.73;;;;;;;;;;6131550;23;20168;-81
2024/03/12 02:20:21;;;;;;;2.03;1.80;;;;;;;;;;6133194;23;20164;-81
2024/03/12 02:22:55;;;;;;;1.90;1.70;;;;;;;;;;6128723;23;20167;-81
2024/03/12 02:25:23;;;;;;;2.90;1.70;;;;;;;;;;6130566;23;20147;-80
2024/03/12 02:27:51;;;;;;;1.87;1.77;;;;;;;;;;6130190;23;20162;-81
2024/03/12 02:30:19;;;;;;;2.03;1.50;;;;;;;;;;6131868;23;20192;-81
2024/03/12 02:32:47;;;;;;;1.67;1.57;;;;;;;;;;6135863;23;20160;-81
2024/03/12 02:35:16;;;;;;;1.73;1.50;;;;;;;;;;6134063;23;20172;-81
2024/03/12 02:37:44;;;;;;;1.67;1.57;;;;;;;;;;6109966;23;20159;-81
2024/03/12 02:40:12;;;;;;;1.60;1.50;;;;;;;;;;6134840;23;20168;-81
2024/03/12 02:42:43;;;;;;;1.63;1.53;;;;;;;;;;6135679;23;20164;-81
2024/03/12 02:45:14;;;;;;;1.47;1.30;;;;;;;;;;6134288;23;20243;-82
2024/03/12 02:47:44;;;;;;;1.80;1.70;;;;;;;;;;6128378;23;20174;-81
2024/03/12 02:50:15;;;;;;;1.70;1.60;;;;;;;;;;6127830;23;20248;-80
2024/03/12 02:52:44;;;;;;;1.70;1.60;;;;;;;;;;6104191;23;20174;-81
2024/03/12 02:55:14;;;;;;;1.77;1.67;;;;;;;;;;6129900;23;20160;-81
2024/03/12 02:57:41;;;;;;;2.43;1.70;;;;;;;;;;6128261;23;20168;-79
2024/03/12 03:00:11;;;;;;;1.83;1.73;;;;;;;;;;6125977;23;20168;-80
2024/03/12 03:02:42;;;;;;;2.00;1.80;;;;;;;;;;6127280;23;20191;-80
2024/03/12 03:05:10;;;;;;;1.70;1.60;;;;;;;;;;6126701;23;20186;-80
2024/03/12 03:07:42;;;;;;;1.50;1.40;;;;;;;;;;6126429;23;20198;-80
2024/03/12 03:10:10;;;;;;;1.10;1.10;;;;;;;;;;6127070;23;20235;-80
2024/03/12 03:12:39;;;;;;;1.73;1.50;;;;;;;;;;6127947;23;20169;-80
2024/03/12 03:15:07;;;;;;;1.77;1.40;;;;;;;;;;6127686;23;20171;-80
2024/03/12 03:17:35;;;;;;;1.67;1.57;;;;;;;;;;6127889;23;20175;-80
2024/03/12 03:20:05;;;;;;;1.60;1.50;;;;;;;;;;6136427;23;20191;-82
2024/03/12 03:22:32;;;;;;;1.50;1.40;;;;;;;;;;6142145;23;20214;-82
2024/03/12 03:25:01;;;;;;;1.50;1.40;;;;;;;;;;6143131;23;20163;-82
2024/03/12 03:27:29;;;;;;;1.60;1.50;;;;;;;;;;6144414;23;20187;-82
2024/03/12 03:29:59;;;;;;;1.60;1.50;;;;;;;;;;6140398;23;20625;-81
2024/03/12 03:32:28;;;;;;;1.63;1.53;;;;;;;;;;6132644;23;20198;-81
2024/03/12 03:34:58;;;;;;;1.83;1.73;;;;;;;;;;6133472;23;20171;-81
2024/03/12 03:37:30;;;;;;;1.80;1.70;;;;;;;;;;6134766;23;20243;-81
2024/03/12 03:39:58;;;;;;;1.60;1.47;;;;;;;;;;6132119;23;20226;-80
2024/03/12 03:42:25;;;;;;;1.50;1.40;;;;;;;;;;6132965;23;20160;-81
2024/03/12 03:44:53;;;;;;;1.70;1.60;;;;;;;;;;6141551;23;20173;-81
2024/03/12 03:47:20;;;;;;;1.50;1.40;;;;;;;;;;6116250;23;20159;-82
2024/03/12 03:49:49;;;;;;;1.50;1.40;;;;;;;;;;6141051;23;20189;-81
2024/03/12 03:52:22;;;;;;;1.47;1.37;;;;;;;;;;6117957;23;20167;-81
2024/03/12 03:54:53;;;;;;;1.67;1.57;;;;;;;;;;6144373;23;20180;-83
2024/03/12 03:57:21;;;;;;;1.53;1.30;;;;;;;;;;6138521;23;20168;-82
2024/03/12 03:59:51;;;;;;;1.43;1.00;;;;;;;;;;6131379;23;20667;-81
2024/03/12 04:02:21;;;;;;;1.27;1.17;;;;;;;;;;6133241;23;20247;-81
2024/03/12 04:04:49;;;;;;;1.23;1.13;;;;;;;;;;6142931;23;20165;-82
2024/03/12 04:07:19;;;;;;;1.10;1.00;;;;;;;;;;6141278;23;20490;-81
2024/03/12 04:09:48;;;;;;;1.10;0.97;;;;;;;;;;6135065;23;20175;-81
2024/03/12 04:12:15;;;;;;;0.80;0.80;;;;;;;;;;6129090;23;20735;-81
2024/03/12 04:14:43;;;;;;;1.00;0.90;;;;;;;;;;6129174;23;20168;-80
2024/03/12 04:17:10;;;;;;;0.80;0.80;;;;;;;;;;6129520;23;20168;-81
2024/03/12 04:19:37;;;;;;;0.87;0.60;;;;;;;;;;6130039;23;20170;-81
2024/03/12 04:22:05;;;;;;;0.63;0.63;;;;;;;;;;6128974;23;20167;-81
2024/03/12 04:24:33;;;;;;;0.70;0.70;;;;;;;;;;6102958;23;20189;-80
2024/03/12 04:27:00;;;;;;;0.70;0.70;;;;;;;;;;6128853;23;20167;-80
2024/03/12 04:29:28;;;;;;;0.80;0.80;;;;;;;;;;6128943;23;20172;-80
2024/03/12 04:31:55;;;;;;;0.80;0.80;;;;;;;;;;6128670;23;20219;-81
2024/03/12 04:34:23;;;;;;;0.90;0.90;;;;;;;;;;6129108;23;20168;-81
2024/03/12 04:36:50;;;;;;;0.80;0.80;;;;;;;;;;6128819;23;20168;-81
2024/03/12 04:39:30;;;;;;;0.80;0.80;;;;;;;;;;6129108;23;20247;-81
2024/03/12 04:42:02;;;;;;;0.70;0.70;;;;;;;;;;6130646;23;20557;-82
2024/03/12 04:44:29;;;;;;;1.23;0.90;;;;;;;;;;6130915;23;20164;-81
2024/03/12 04:46:57;;;;;;;1.20;1.10;;;;;;;;;;6130234;23;20170;-81
2024/03/12 04:49:25;;;;;;;0.97;0.93;;;;;;;;;;6129544;23;20159;-82
2024/03/12 04:51:52;;;;;;;1.20;1.10;;;;;;;;;;6128878;23;20270;-79
2024/03/12 04:54:20;;;;;;;0.90;0.90;;;;;;;;;;6103366;23;20172;-81
2024/03/12 04:56:48;;;;;;;1.27;1.17;;;;;;;;;;6130277;23;20164;-80
2024/03/12 04:59:15;;;;;;;1.10;1.00;;;;;;;;;;6129726;23;20164;-81
2024/03/12 05:01:45;;;;;;;1.60;1.00;;;;;;;;;;6131578;23;20167;-81
2024/03/12 05:04:12;;;;;;;1.40;1.10;;;;;;;;;;6131777;23;20153;-82
2024/03/12 05:06:49;;;;;;;1.63;0.93;;;;;;;;;;6133353;23;20147;-80
2024/03/12 05:09:17;;;;;;;1.10;1.00;;;;;;;;;;6132043;23;20159;-82
2024/03/12 05:11:45;;;;;;;1.20;0.90;;;;;;;;;;6137673;23;20205;-81
2024/03/12 05:14:12;;;;;;;1.73;1.20;;;;;;;;;;6129122;23;20187;-80
2024/03/12 05:16:40;;;;;;;1.20;1.10;;;;;;;;;;6129748;23;20688;-80
2024/03/12 05:19:10;;;;;;;1.13;1.00;;;;;;;;;;6136417;23;20160;-82
2024/03/12 05:21:41;;;;;;;0.80;0.80;;;;;;;;;;6148778;23;20198;-82
2024/03/12 05:24:10;;;;;;;1.10;1.00;;;;;;;;;;6124040;23;20199;-82
2024/03/12 05:26:44;;;;;;;0.80;0.80;;;;;;;;;;6149150;23;20172;-82
2024/03/12 05:29:13;;;;;;;0.73;0.73;;;;;;;;;;6102063;23;20168;-83
2024/03/12 05:31:43;;;;;;;1.00;0.87;;;;;;;;;;6124363;23;20196;-83
2024/03/12 05:34:29;;;;;;;0.90;0.90;;;;;;;;;;6124551;23;20171;-83
2024/03/12 05:37:05;;;;;;;0.87;0.87;;;;;;;;;;6150849;23;20146;-82
2024/03/12 05:40:18;;;;;;;1.73;0.90;;;;;;;;;;6151676;23;20159;-82
2024/03/12 05:48:10;;;;;;;1.13;0.90;;;;;;;;;;6151489;23;20153;-82
2024/03/12 05:50:40;;;;;;;0.93;0.93;;;;;;;;;;6150793;23;20192;-82
2024/03/12 05:53:10;;;;;;;0.90;0.90;;;;;;;;;;6150715;23;20180;-82
2024/03/12 05:55:41;;;;;;;1.13;1.10;;;;;;;;;;6151516;23;20168;-82
2024/03/12 05:58:15;;;;;;;1.60;1.20;;;;;;;;;;6104341;23;20167;-82
2024/03/12 06:00:47;;;;;;;1.30;1.20;;;;;;;;;;6126520;23;20223;-83
2024/03/12 06:03:27;;;;;;;0.97;0.97;;;;;;;;;;6151913;23;20174;-83
2024/03/12 06:05:57;;;;;;;1.30;1.20;;;;;;;;;;6126335;23;20203;-83
2024/03/12 06:08:27;;;;;;;1.40;1.30;;;;;;;;;;6127044;23;20169;-83
2024/03/12 06:10:57;;;;;;;1.50;1.40;;;;;;;;;;6102011;23;20195;-82
2024/03/12 06:13:27;;;;;;;1.90;1.43;;;;;;;;;;6102332;23;20151;-83
2024/03/12 06:15:57;;;;;;;1.70;1.60;;;;;;;;;;6102567;23;20167;-82
2024/03/12 06:18:32;;;;;;;1.70;1.60;;;;;;;;;;6151821;23;20167;-82
2024/03/12 06:21:03;;;;;;;1.70;1.60;;;;;;;;;;6127427;23;20156;-83
2024/03/12 06:23:35;;;;;;;1.67;1.57;;;;;;;;;;6125555;23;20227;-83
2024/03/12 06:26:09;;;;;;;2.03;1.87;;;;;;;;;;6127892;23;20152;-83
2024/03/12 06:28:37;;;;;;;2.17;1.97;;;;;;;;;;6125675;23;20186;-82
2024/03/12 06:31:08;;;;;;;1.73;1.63;;;;;;;;;;6119887;23;20230;-83
2024/03/12 06:33:43;;;;;;;1.67;1.57;;;;;;;;;;6144628;23;20177;-82
2024/03/12 06:36:15;;;;;;;2.00;1.90;;;;;;;;;;6121863;23;20172;-82
2024/03/12 06:38:47;;;;;;;2.70;2.00;;;;;;;;;;6121130;23;20218;-83
2024/03/12 06:41:15;;;;;;;1.80;1.70;;;;;;;;;;6120168;23;20168;-83
2024/03/12 06:43:45;;;;;;;1.80;1.70;;;;;;;;;;6144118;23;20164;-82
2024/03/12 06:46:18;;;;;;;1.80;1.70;;;;;;;;;;6120470;23;20216;-82
2024/03/12 06:48:47;;;;;;;1.90;1.80;;;;;;;;;;6118745;23;20231;-82
2024/03/12 06:51:17;;;;;;;1.60;1.50;;;;;;;;;;6119703;23;20181;-82
2024/03/12 06:53:47;;;;;;;1.97;1.67;;;;;;;;;;6118469;23;20248;-82
2024/03/12 06:56:17;;;;;;;1.50;1.40;;;;;;;;;;6118520;23;20168;-82
2024/03/12 06:58:46;;;;;;;2.33;1.50;;;;;;;;;;6117798;23;20174;-82
2024/03/12 07:01:19;;;;;;;2.60;1.40;;;;;;;;;;6119506;23;20171;-82
2024/03/12 07:03:49;;;;;;;1.50;1.40;;;;;;;;;;6119712;23;20188;-83
2024/03/12 07:06:21;;;;;;;1.37;1.20;;;;;;;;;;6120522;23;20141;-83
2024/03/12 07:08:50;;;;;;;1.10;1.00;;;;;;;;;;6119344;23;20196;-83
2024/03/12 07:11:34;;;;;;;1.20;1.10;;;;;;;;;;6098122;23;20183;-83
2024/03/12 07:14:12;;;;;;;1.40;1.30;;;;;;;;;;6119950;23;20155;-82
2024/03/12 07:16:44;;;;;;;1.07;0.80;;;;;;;;;;6120006;23;20179;-82
2024/03/12 07:19:15;;;;;;;1.10;1.00;;;;;;;;;;6119718;23;20191;-83
2024/03/12 07:21:43;;;;;;;1.10;1.00;;;;;;;;;;6142458;23;20180;-82
2024/03/12 07:24:15;;;;;;;1.00;0.80;;;;;;;;;;6120805;23;20163;-82
2024/03/12 07:26:48;;;;;;;0.90;0.90;;;;;;;;;;6119441;23;20188;-82
2024/03/12 07:29:17;;;;;;;1.00;1.00;;;;;;;;;;6116987;23;20168;-82
2024/03/12 07:31:49;;;;;;;0.90;0.90;;;;;;;;;;6114396;23;20205;-82
2024/03/12 07:34:29;;;;;;;0.93;0.90;;;;;;;;;;6116581;23;20161;-83
2024/03/12 07:36:59;;;;;;;1.23;0.80;;;;;;;;;;6117259;23;20168;-82
2024/03/12 07:39:34;;;;;;;1.00;0.90;;;;;;;;;;6117136;23;20164;-83
2024/03/12 07:42:21;;;;;;;0.80;0.80;;;;;;;;;;6116116;23;20160;-83
2024/03/12 07:44:54;;;;;;;0.77;0.73;;;;;;;;;;6117986;23;20235;-83
2024/03/12 07:47:24;;;;;;;0.77;0.77;;;;;;;;;;6117627;23;20162;-82
2024/03/12 07:49:53;;;;;;;1.40;0.80;;;;;;;;;;6118632;23;20497;-83
2024/03/12 07:52:29;;;;;;;1.43;0.80;;;;;;;;;;6118885;23;20212;-83
2024/03/12 07:55:12;;;;;;;0.90;0.90;;;;;;;;;;6117374;23;20177;-81
2024/03/12 07:57:52;;;;;;;0.70;0.70;;;;;;;;;;6116672;23;20252;-83
2024/03/12 08:05:25;;;;;;;0.60;0.60;;;;;;;;;;6061785;23;20231;-83
2024/03/12 08:28:04;;;;;;;0.60;0.60;;;;;;;;;;6004807;23;20157;-83
2024/03/12 08:34:56;;;;;;;0.60;0.60;;;;;;;;;;6005087;24;20216;-84
2024/03/12 08:42:31;;;;;;;1.37;0.80;;;;;;;;;;6083345;23;20227;-83
2024/03/12 08:45:44;;;;;;;0.80;0.80;;;;;;;;;;6060728;23;20172;-84
2024/03/12 08:48:48;;;;;;;0.70;0.70;;;;;;;;;;6091817;23;20148;-83
2024/03/12 08:51:35;;;;;;;0.80;0.80;;;;;;;;;;6148116;23;20179;-83
2024/03/12 08:54:49;;;;;;;0.80;0.80;;;;;;;;;;6148142;23;20217;-82
2024/03/12 08:57:20;;;;;;;0.80;0.80;;;;;;;;;;6144007;23;20175;-82
2024/03/12 08:59:49;;;;;;;0.70;0.70;;;;;;;;;;6140749;23;20222;-80
2024/03/12 09:02:18;;;;;;;0.87;0.80;;;;;;;;;;6139298;23;20242;-81
2024/03/12 09:04:46;;;;;;;1.27;0.90;;;;;;;;;;6135457;23;20184;-82
2024/03/12 09:07:16;;;;;;;1.00;0.77;;;;;;;;;;6137805;23;20160;-82
2024/03/12 09:09:44;;;;;;;0.80;0.80;;;;;;;;;;6139810;23;20167;-81
2024/03/12 09:12:18;;;;;;;0.63;0.53;;;;;;;;;;6138835;23;20208;-85
2024/03/12 09:16:02;;;;;;;0.70;0.70;;;;;;;;;;6131417;23;20191;-84
2024/03/12 09:23:51;;;;;;;0.53;0.53;;;;;;;;;;6062343;23;20200;-84
2024/03/12 09:27:47;;;;;;;0.67;0.57;;;;;;;;;;6061695;23;20197;-83
2024/03/12 09:31:36;;;;;;;0.70;0.53;;;;;;;;;;6032701;23;20168;-84
2024/03/12 09:47:27;;;;;;;0.53;0.50;;;;;;;;;;6063591;23;20150;-84
2024/03/12 10:30:28;;;;;;;0.40;0.20;;;;;;;;;;6064014;23;20239;-84
2024/03/12 10:33:10;;;;;;;0.30;0.30;;;;;;;;;;6098934;23;20172;-82
2024/03/12 10:35:38;;;;;;;0.20;0.20;;;;;;;;;;6098437;23;20164;-83
2024/03/12 10:38:06;;;;;;;0.30;0.30;;;;;;;;;;6098487;23;20167;-82
2024/03/12 10:40:34;;;;;;;0.20;0.20;;;;;;;;;;6075247;23;20219;-81
2024/03/12 10:43:01;;;;;;;0.30;0.20;;;;;;;;;;6099025;23;20195;-81
2024/03/12 10:45:29;;;;;;;0.20;0.20;;;;;;;;;;6098936;23;20615;-81
2024/03/12 10:47:58;;;;;;;0.30;0.30;;;;;;;;;;6124605;23;20234;-81
2024/03/12 10:50:26;;;;;;;0.90;0.30;;;;;;;;;;6099482;23;20611;-80
2024/03/12 10:52:54;;;;;;;0.40;0.30;;;;;;;;;;6075225;23;20167;-84
2024/03/12 10:55:21;;;;;;;0.40;0.40;;;;;;;;;;6099215;23;20176;-83
2024/03/12 10:57:58;;;;;;;0.30;0.30;;;;;;;;;;6125305;23;20172;-83
2024/03/12 11:00:25;;;;;;;0.30;0.30;;;;;;;;;;6098647;23;20175;-82
2024/03/12 11:02:56;;;;;;;0.40;0.40;;;;;;;;;;6098351;23;20198;-83
2024/03/12 11:05:27;;;;;;;0.70;0.50;;;;;;;;;;6098488;23;20186;-84
2024/03/12 11:07:59;;;;;;;0.40;0.40;;;;;;;;;;6098587;23;20345;-83
2024/03/12 11:10:33;;;;;;;0.47;0.47;;;;;;;;;;6097891;23;20218;-84
2024/03/12 11:13:01;;;;;;;0.50;0.50;;;;;;;;;;6121628;23;20202;-82
2024/03/12 11:15:29;;;;;;;0.60;0.60;;;;;;;;;;6122454;23;20171;-80
2024/03/12 11:17:59;;;;;;;0.50;0.50;;;;;;;;;;6098092;23;20176;-81
2024/03/12 11:20:27;;;;;;;0.40;0.40;;;;;;;;;;6098281;23;20171;-80
2024/03/12 11:23:00;;;;;;;0.40;0.40;;;;;;;;;;6123578;23;20214;-82
2024/03/12 11:25:35;;;;;;;0.40;0.30;;;;;;;;;;6124148;23;20214;-82
2024/03/12 11:28:20;;;;;;;1.50;0.50;;;;;;;;;;6098455;23;20180;-82
2024/03/12 11:30:57;;;;;;;0.67;0.50;;;;;;;;;;6122362;23;20203;-84
2024/03/12 11:33:41;;;;;;;0.90;0.40;;;;;;;;;;6123130;23;20266;-83
2024/03/12 11:36:09;;;;;;;0.60;0.60;;;;;;;;;;6123639;23;20215;-84
2024/03/12 11:38:40;;;;;;;0.60;0.53;;;;;;;;;;6123065;23;20164;-81
2024/03/12 11:41:09;;;;;;;0.70;0.50;;;;;;;;;;6123586;23;20191;-83
2024/03/12 11:43:37;;;;;;;0.60;0.60;;;;;;;;;;6098647;23;20183;-84
2024/03/12 11:46:25;;;;;;;1.27;0.57;;;;;;;;;;6099523;23;20195;-80
2024/03/12 11:48:54;;;;;;;0.43;0.40;;;;;;;;;;6121146;23;20249;-81
2024/03/12 11:51:44;;;;;;;0.50;0.50;;;;;;;;;;6122667;23;20226;-84
2024/03/12 11:54:32;;;;;;;0.40;0.40;;;;;;;;;;6123724;23;20198;-81
2024/03/12 11:57:01;;;;;;;0.73;0.50;;;;;;;;;;6122707;23;20168;-83
2024/03/12 11:59:29;;;;;;;0.50;0.50;;;;;;;;;;6124330;23;20169;-81
2024/03/12 12:01:58;;;;;;;0.60;0.43;;;;;;;;;;6097869;23;20203;-81
2024/03/12 12:04:36;;;;;;;0.50;0.50;;;;;;;;;;6123136;23;20626;-80
2024/03/12 12:07:05;;;;;;;0.67;0.57;;;;;;;;;;6123094;23;20174;-82
2024/03/12 12:09:32;;;;;;;0.50;0.50;;;;;;;;;;6124329;23;20179;-80
2024/03/12 12:12:03;;;;;;;0.90;0.60;;;;;;;;;;6098391;23;20167;-82
2024/03/12 12:14:33;;;;;;;0.50;0.40;;;;;;;;;;6122921;23;20191;-83
2024/03/12 12:17:02;;;;;;;0.50;0.50;;;;;;;;;;6098468;23;20263;-81
2024/03/12 12:19:31;;;;;;;0.70;0.60;;;;;;;;;;6098330;23;20194;-80
2024/03/12 12:22:08;;;;;;;0.60;0.50;;;;;;;;;;6100478;23;20191;-81
2024/03/12 12:24:38;;;;;;;0.67;0.60;;;;;;;;;;6099150;23;20259;-81
2024/03/12 12:27:08;;;;;;;0.70;0.70;;;;;;;;;;6122646;23;20178;-80
2024/03/12 12:29:39;;;;;;;1.30;0.73;;;;;;;;;;6122347;23;20686;-83
2024/03/12 12:32:07;;;;;;;0.80;0.80;;;;;;;;;;6123921;23;20164;-81
2024/03/12 12:34:37;;;;;;;0.60;0.60;;;;;;;;;;6098760;23;20178;-82
2024/03/12 12:37:09;;;;;;;0.73;0.73;;;;;;;;;;6098876;23;20219;-83
2024/03/12 12:39:37;;;;;;;0.70;0.70;;;;;;;;;;6122358;23;20526;-83
2024/03/12 12:42:24;;;;;;;1.17;0.90;;;;;;;;;;6122082;23;20191;-81
2024/03/12 12:44:53;;;;;;;0.80;0.80;;;;;;;;;;6122072;23;20203;-83
2024/03/12 12:47:22;;;;;;;0.93;0.90;;;;;;;;;;6122525;23;20246;-81
2024/03/12 12:49:53;;;;;;;0.80;0.80;;;;;;;;;;6097962;23;20176;-82
2024/03/12 12:52:23;;;;;;;1.00;0.73;;;;;;;;;;6122082;23;20220;-83
2024/03/12 12:54:57;;;;;;;0.70;0.70;;;;;;;;;;6122062;23;20219;-86
2024/03/12 12:57:27;;;;;;;1.20;0.90;;;;;;;;;;6122411;23;20205;-81
2024/03/12 12:59:55;;;;;;;0.97;0.80;;;;;;;;;;6122257;23;20171;-84
2024/03/12 13:02:26;;;;;;;0.63;0.63;;;;;;;;;;6122253;23;20203;-81
2024/03/12 13:04:56;;;;;;;0.93;0.80;;;;;;;;;;6122510;23;20382;-84
2024/03/12 13:07:28;;;;;;;0.80;0.80;;;;;;;;;;6122181;23;20172;-84
2024/03/12 13:09:55;;;;;;;0.80;0.80;;;;;;;;;;6122522;23;20178;-83
2024/03/12 13:12:23;;;;;;;2.00;0.80;;;;;;;;;;6098453;23;20199;-81
2024/03/12 13:14:52;;;;;;;0.70;0.70;;;;;;;;;;6097769;23;20619;-83
2024/03/12 13:17:27;;;;;;;0.80;0.77;;;;;;;;;;6099384;23;20647;-85
2024/03/12 13:19:56;;;;;;;1.20;0.87;;;;;;;;;;6098058;23;20250;-84
2024/03/12 13:22:23;;;;;;;1.20;1.10;;;;;;;;;;6097933;23;20195;-82
2024/03/12 13:24:57;;;;;;;1.30;0.90;;;;;;;;;;6100743;23;20174;-82
2024/03/12 13:27:27;;;;;;;1.10;1.00;;;;;;;;;;6099288;23;20172;-82
2024/03/12 13:29:54;;;;;;;1.07;1.00;;;;;;;;;;6123126;23;20676;-84
2024/03/12 13:32:23;;;;;;;1.37;1.10;;;;;;;;;;6123329;23;20170;-83
2024/03/12 13:34:50;;;;;;;1.20;1.10;;;;;;;;;;6098505;23;20230;-81
2024/03/12 13:37:18;;;;;;;1.03;1.00;;;;;;;;;;6099320;23;20179;-84
2024/03/12 13:39:45;;;;;;;1.20;1.10;;;;;;;;;;6123867;23;20227;-82
2024/03/12 13:42:13;;;;;;;1.30;1.07;;;;;;;;;;6123035;23;20178;-83
2024/03/12 13:44:40;;;;;;;0.93;0.80;;;;;;;;;;6099165;23;20204;-82
2024/03/12 13:47:09;;;;;;;1.00;1.00;;;;;;;;;;6122579;23;20195;-81
2024/03/12 13:49:43;;;;;;;1.20;1.10;;;;;;;;;;6124157;23;20175;-81
2024/03/12 13:52:13;;;;;;;1.63;1.13;;;;;;;;;;6124035;23;20172;-82
2024/03/12 13:54:43;;;;;;;1.30;1.20;;;;;;;;;;6123407;23;20164;-82
2024/03/12 13:57:11;;;;;;;1.10;0.90;;;;;;;;;;6123840;23;20195;-81
2024/03/12 13:59:39;;;;;;;1.33;1.23;;;;;;;;;;6124691;23;20168;-81
2024/03/12 14:02:07;;;;;;;1.10;1.00;;;;;;;;;;6124644;23;20203;-84
2024/03/12 14:04:35;;;;;;;1.00;0.90;;;;;;;;;;6124980;23;20246;-82
2024/03/12 14:07:05;;;;;;;1.00;0.90;;;;;;;;;;6100465;23;20172;-85
2024/03/12 14:09:32;;;;;;;1.20;1.10;;;;;;;;;;6100330;23;20175;-85
2024/03/12 14:12:00;;;;;;;1.20;1.10;;;;;;;;;;6100183;23;20175;-82
2024/03/12 14:14:32;;;;;;;1.40;1.10;;;;;;;;;;6123825;23;20187;-81
2024/03/12 14:17:03;;;;;;;1.40;1.23;;;;;;;;;;6123999;23;20176;-81
2024/03/12 14:19:30;;;;;;;1.00;0.90;;;;;;;;;;6123691;23;20175;-81
2024/03/12 14:21:58;;;;;;;1.10;0.97;;;;;;;;;;6123472;23;20175;-81
2024/03/12 14:24:27;;;;;;;1.60;1.10;;;;;;;;;;6123533;23;20180;-82
2024/03/12 14:26:54;;;;;;;1.43;0.90;;;;;;;;;;6099788;23;20172;-81
2024/03/12 14:29:21;;;;;;;1.90;1.00;;;;;;;;;;6126553;23;20196;-80
2024/03/12 14:31:49;;;;;;;1.17;1.00;;;;;;;;;;6105016;23;20221;-83
2024/03/12 14:34:16;;;;;;;1.63;1.27;;;;;;;;;;6129125;23;20262;-83
2024/03/12 14:36:44;;;;;;;1.23;1.10;;;;;;;;;;6129133;23;20167;-80
2024/03/12 14:39:12;;;;;;;1.27;1.17;;;;;;;;;;6128949;23;20269;-82
2024/03/12 14:41:40;;;;;;;1.57;1.27;;;;;;;;;;6104320;23;20198;-81
2024/03/12 14:44:07;;;;;;;1.30;1.20;;;;;;;;;;6104022;23;20195;-81
2024/03/12 14:46:35;;;;;;;1.00;0.90;;;;;;;;;;6128370;23;20175;-80
2024/03/12 14:49:07;;;;;;;0.90;0.90;;;;;;;;;;6129143;23;20191;-85
2024/03/12 14:51:34;;;;;;;1.07;1.00;;;;;;;;;;6128940;23;20163;-82
2024/03/12 14:54:02;;;;;;;1.13;1.03;;;;;;;;;;6104201;23;20175;-82
2024/03/12 14:56:29;;;;;;;1.20;1.10;;;;;;;;;;6128358;23;20229;-83
2024/03/12 14:58:57;;;;;;;1.20;1.10;;;;;;;;;;6154208;23;20171;-82
2024/03/12 15:01:24;;;;;;;1.67;1.20;;;;;;;;;;6128431;23;20233;-81
2024/03/12 15:03:51;;;;;;;1.40;1.27;;;;;;;;;;6104130;23;20197;-81
2024/03/12 15:06:19;;;;;;;1.60;1.33;;;;;;;;;;6129040;23;20173;-81
2024/03/12 15:08:46;;;;;;;1.43;1.33;;;;;;;;;;6128744;23;20257;-82
2024/03/12 15:11:14;;;;;;;1.30;1.20;;;;;;;;;;6105084;23;20167;-80
2024/03/12 15:13:44;;;;;;;1.30;1.20;;;;;;;;;;6104776;23;20614;-81
2024/03/12 15:16:12;;;;;;;1.57;1.40;;;;;;;;;;6129701;23;20230;-83
2024/03/12 15:18:42;;;;;;;1.97;1.30;;;;;;;;;;6105824;23;20177;-83
2024/03/12 15:21:10;;;;;;;1.73;1.33;;;;;;;;;;6130424;23;20163;-81
2024/03/12 15:23:38;;;;;;;1.30;1.20;;;;;;;;;;6104823;23;20190;-82
2024/03/12 15:26:05;;;;;;;1.63;1.53;;;;;;;;;;6129414;23;20187;-83
2024/03/12 15:28:32;;;;;;;1.83;1.70;;;;;;;;;;6128704;23;20170;-84
2024/03/12 15:31:03;;;;;;;2.13;1.53;;;;;;;;;;6123858;23;20196;-83
2024/03/12 15:33:32;;;;;;;1.43;1.33;;;;;;;;;;6124194;23;20173;-82
2024/03/12 15:36:04;;;;;;;1.80;1.70;;;;;;;;;;6123866;23;20258;-82
2024/03/12 15:38:34;;;;;;;1.77;1.67;;;;;;;;;;6123820;23;20182;-85
2024/03/12 15:41:02;;;;;;;2.27;1.67;;;;;;;;;;6123652;23;20176;-81
2024/03/12 15:43:32;;;;;;;1.80;1.70;;;;;;;;;;6099333;23;20203;-83
2024/03/12 15:46:07;;;;;;;1.70;1.60;;;;;;;;;;6124373;23;20176;-82
2024/03/12 15:48:34;;;;;;;1.67;1.57;;;;;;;;;;6123692;23;20301;-82
2024/03/12 15:51:06;;;;;;;1.93;1.83;;;;;;;;;;6100699;23;20193;-81
2024/03/12 15:53:36;;;;;;;1.70;1.60;;;;;;;;;;6099849;23;20168;-81
2024/03/12 15:56:04;;;;;;;2.00;1.80;;;;;;;;;;6123086;23;20202;-84
2024/03/12 15:58:31;;;;;;;1.80;1.60;;;;;;;;;;6098974;23;20250;-84
2024/03/12 16:01:01;;;;;;;1.73;1.63;;;;;;;;;;6123295;23;20215;-84
2024/03/12 16:03:28;;;;;;;1.90;1.80;;;;;;;;;;6123617;23;20195;-81
2024/03/12 16:05:56;;;;;;;3.53;2.27;;;;;;;;;;6124557;23;20198;-81
2024/03/12 16:08:23;;;;;;;2.30;1.90;;;;;;;;;;6123598;23;20176;-80
2024/03/12 16:10:52;;;;;;;2.47;1.90;;;;;;;;;;6099420;23;20203;-81
2024/03/12 16:13:21;;;;;;;1.90;1.80;;;;;;;;;;6122993;23;20191;-81
2024/03/12 16:15:52;;;;;;;2.67;1.90;;;;;;;;;;6098935;23;20205;-84
2024/03/12 16:18:21;;;;;;;2.13;1.93;;;;;;;;;;6123180;23;20155;-81
2024/03/12 16:20:48;;;;;;;1.80;1.70;;;;;;;;;;6098502;23;20175;-82
2024/03/12 16:23:16;;;;;;;1.93;1.80;;;;;;;;;;6098821;23;20187;-81
2024/03/12 16:25:43;;;;;;;2.00;1.90;;;;;;;;;;6124363;23;20178;-81
2024/03/12 16:28:11;;;;;;;1.93;1.80;;;;;;;;;;6098428;23;20179;-85
2024/03/12 16:30:39;;;;;;;2.70;2.00;;;;;;;;;;6122097;23;20207;-81
2024/03/12 16:33:07;;;;;;;1.90;1.80;;;;;;;;;;6123205;23;20195;-83
2024/03/12 16:35:35;;;;;;;2.27;2.07;;;;;;;;;;6122620;23;20195;-81
2024/03/12 16:38:05;;;;;;;2.47;1.87;;;;;;;;;;6098614;23;20176;-82
2024/03/12 16:40:34;;;;;;;1.90;1.80;;;;;;;;;;6122595;23;20687;-81
2024/03/12 16:43:01;;;;;;;2.60;2.07;;;;;;;;;;6123088;23;20271;-83
2024/03/12 16:45:32;;;;;;;1.90;1.80;;;;;;;;;;6123168;23;20191;-82